createdAt,value
2019-05-14T00:01:22.329Z,103145.83
2019-05-14T00:03:53.314Z,103147.14
2019-05-14T00:06:23.436Z,103140.05
2019-05-14T00:08:53.566Z,103145.34
2019-05-14T00:11:23.686Z,103143.14
2019-05-14T00:13:53.822Z,103143.56
2019-05-14T00:16:24.392Z,103145.77
2019-05-14T00:18:54.626Z,103145.32
2019-05-14T00:21:24.751Z,103145.72
2019-05-14T00:23:54.954Z,103148.80
2019-05-14T00:26:25.150Z,103150.98
2019-05-14T00:28:55.290Z,103140.81
2019-05-14T00:31:25.398Z,103150.08
2019-05-14T00:33:55.521Z,103145.21
2019-05-14T00:36:25.632Z,103147.84
2019-05-14T00:38:55.753Z,103142.98
2019-05-14T00:41:25.886Z,103147.38
2019-05-14T00:43:56.044Z,103147.77
2019-05-14T00:46:26.155Z,103148.17
2019-05-14T00:48:56.307Z,103149.48
2019-05-14T00:51:26.435Z,103147.29
2019-05-14T00:53:56.567Z,103145.51
2019-05-14T00:56:26.694Z,103145.49
2019-05-14T00:58:56.824Z,103144.13
2019-05-14T01:01:26.949Z,103148.55
2019-05-14T01:03:57.101Z,103150.33
2019-05-14T01:06:27.231Z,103152.53
2019-05-14T01:08:57.395Z,103157.81
2019-05-14T01:11:28.584Z,103154.27
2019-05-14T01:13:58.720Z,103152.48
2019-05-14T01:16:28.848Z,103153.81
2019-05-14T01:18:58.974Z,103155.55
2019-05-14T01:21:31.106Z,103151.53
2019-05-14T01:24:02.041Z,103162.13
2019-05-14T01:26:32.206Z,103152.80
2019-05-14T01:29:02.350Z,103155.45
2019-05-14T01:31:33.903Z,103152.36
2019-05-14T01:34:04.682Z,103154.11
2019-05-14T01:36:34.822Z,103157.19
2019-05-14T01:39:06.794Z,103158.49
2019-05-14T01:41:36.921Z,103154.95
2019-05-14T01:44:07.053Z,103155.37
2019-05-14T01:46:38.266Z,103154.94
2019-05-14T01:49:08.411Z,103156.69
2019-05-14T01:51:38.551Z,103157.98
2019-05-14T01:54:08.673Z,103152.69
2019-05-14T01:56:38.787Z,103149.61
2019-05-14T01:59:08.931Z,103152.69
2019-05-14T02:01:41.122Z,103148.25
2019-05-14T02:04:11.644Z,103152.22
2019-05-14T02:06:43.043Z,103153.98
2019-05-14T02:09:13.521Z,103149.08
2019-05-14T02:11:43.637Z,103151.70
2019-05-14T02:14:13.778Z,103152.09
2019-05-14T02:16:43.894Z,103153.42
2019-05-14T02:19:14.026Z,103149.89
2019-05-14T02:21:45.212Z,103150.33
2019-05-14T02:24:15.330Z,103157.39
2019-05-14T02:26:45.450Z,103149.90
2019-05-14T02:29:15.586Z,103152.11
2019-05-14T02:31:45.815Z,103153.86
2019-05-14T02:34:19.579Z,103153.83
2019-05-14T02:36:49.649Z,103154.25
2019-05-14T02:39:19.848Z,103155.58
2019-05-14T02:41:50.167Z,103158.23
2019-05-14T02:44:20.304Z,103154.69
2019-05-14T02:46:50.850Z,103158.23
2019-05-14T02:49:21.119Z,103155.16
2019-05-14T02:51:51.252Z,103150.73
2019-05-14T02:54:21.387Z,103156.02
2019-05-14T02:56:51.494Z,103150.71
2019-05-14T02:59:21.620Z,103150.28
2019-05-14T03:01:51.751Z,103150.78
2019-05-14T03:04:21.978Z,103147.86
2019-05-14T03:06:52.131Z,103146.28
2019-05-14T03:09:22.301Z,103151.30
2019-05-14T03:11:52.431Z,103152.75
2019-05-14T03:14:22.576Z,103160.80
2019-05-14T03:16:52.916Z,103154.23
2019-05-14T03:19:23.059Z,103158.29
2019-05-14T03:21:53.183Z,103162.35
2019-05-14T03:24:23.419Z,103161.95
2019-05-14T03:26:53.539Z,103156.62
2019-05-14T03:29:26.232Z,103153.09
2019-05-14T03:31:55.519Z,103153.53
2019-05-14T03:34:25.681Z,103157.01
2019-05-14T03:36:55.932Z,103148.59
2019-05-14T03:39:29.399Z,103149.50
2019-05-14T03:41:58.970Z,103153.89
2019-05-14T03:44:29.558Z,103147.19
2019-05-14T03:47:04.662Z,103149.02
2019-05-14T03:49:31.602Z,103153.09
2019-05-14T03:52:01.716Z,103150.42
2019-05-14T03:54:31.867Z,103148.64
2019-05-14T03:57:02.182Z,103146.84
2019-05-14T03:59:32.411Z,103146.38
2019-05-14T04:02:02.710Z,103147.30
2019-05-14T04:04:32.879Z,103148.23
2019-05-14T04:07:04.384Z,103148.23
2019-05-14T04:09:35.177Z,103151.76
2019-05-14T04:12:09.950Z,103152.64
2019-05-14T04:14:43.191Z,103151.26
2019-05-14T04:17:28.504Z,103148.56
2019-05-14T04:19:51.287Z,103142.36
2019-05-14T04:22:24.149Z,103139.20
2019-05-14T04:24:59.434Z,103140.53
2019-05-14T04:27:30.186Z,103139.63
2019-05-14T04:30:02.257Z,103140.94
2019-05-14T04:32:32.554Z,103139.60
2019-05-14T04:35:03.103Z,103143.11
2019-05-14T04:37:33.235Z,103138.63
2019-05-14T04:40:03.513Z,103137.67
2019-05-14T04:42:33.626Z,103142.02
2019-05-14T04:45:06.405Z,103135.70
2019-05-14T04:47:40.915Z,103135.61
2019-05-14T04:50:10.532Z,103139.94
2019-05-14T04:52:40.837Z,103133.97
2019-05-14T04:55:11.292Z,103136.39
2019-05-14T04:57:41.465Z,103140.12
2019-05-14T05:00:12.720Z,103134.95
2019-05-14T05:02:43.056Z,103131.06
2019-05-14T05:05:14.368Z,103139.59
2019-05-14T05:07:44.731Z,103141.48
2019-05-14T05:10:19.044Z,103141.93
2019-05-14T05:12:49.306Z,103141.47
2019-05-14T05:15:19.974Z,103135.56
2019-05-14T05:17:53.034Z,103135.48
2019-05-14T05:20:21.971Z,103140.21
2019-05-14T05:22:52.253Z,103136.71
2019-05-14T05:25:24.475Z,103131.97
2019-05-14T05:27:56.419Z,103131.50
2019-05-14T05:30:26.426Z,103140.89
2019-05-14T05:32:59.703Z,103141.27
2019-05-14T05:35:30.076Z,103139.53
2019-05-14T05:38:00.200Z,103141.67
2019-05-14T05:40:30.350Z,103133.67
2019-05-14T05:43:00.504Z,103132.36
2019-05-14T05:45:30.720Z,103134.94
2019-05-14T05:48:01.844Z,103124.95
2019-05-14T05:50:32.125Z,103133.83
2019-05-14T05:53:02.324Z,103126.66
2019-05-14T05:55:32.427Z,103130.66
2019-05-14T05:58:02.576Z,103133.83
2019-05-14T06:00:35.533Z,103129.05
2019-05-14T06:03:05.768Z,103130.11
2019-05-14T06:05:38.677Z,103135.09
2019-05-14T06:08:08.597Z,103130.59
2019-05-14T06:10:40.183Z,103130.12
2019-05-14T06:13:13.916Z,103126.58
2019-05-14T06:15:48.314Z,103130.64
2019-05-14T06:18:19.533Z,103126.19
2019-05-14T06:20:49.347Z,103128.33
2019-05-14T06:23:19.741Z,103123.31
2019-05-14T06:25:49.892Z,103118.76
2019-05-14T06:28:20.943Z,103120.73
2019-05-14T06:30:51.276Z,103117.97
2019-05-14T06:33:21.403Z,103122.56
2019-05-14T06:35:51.533Z,103118.83
2019-05-14T06:38:21.675Z,103119.67
2019-05-14T06:40:51.813Z,103113.59
2019-05-14T06:43:22.140Z,103115.98
2019-05-14T06:45:52.276Z,103113.59
2019-05-14T06:48:30.847Z,103112.70
2019-05-14T06:50:54.228Z,103111.41
2019-05-14T06:53:24.357Z,103108.42
2019-05-14T06:55:54.489Z,103103.84
2019-05-14T06:58:24.617Z,103109.70
2019-05-14T07:00:54.753Z,103109.02
2019-05-14T07:03:24.936Z,103113.80
2019-05-14T07:05:55.107Z,103107.44
2019-05-14T07:08:25.217Z,103110.95
2019-05-14T07:10:55.373Z,103107.21
2019-05-14T07:13:25.529Z,103105.78
2019-05-14T07:15:58.192Z,103106.90
2019-05-14T07:18:43.994Z,103104.39
2019-05-14T07:21:00.434Z,103108.78
2019-05-14T07:23:30.558Z,103097.06
2019-05-14T07:26:00.691Z,103109.33
2019-05-14T07:28:30.819Z,103102.72
2019-05-14T07:31:00.964Z,103105.80
2019-05-14T07:33:31.159Z,103101.76
2019-05-14T07:36:01.289Z,103101.09
2019-05-14T07:38:31.414Z,103099.23
2019-05-14T07:41:01.552Z,103099.51
2019-05-14T07:43:31.705Z,103095.68
2019-05-14T07:46:01.816Z,103089.70
2019-05-14T07:48:31.986Z,103087.45
2019-05-14T07:51:02.122Z,103085.77
2019-05-14T07:53:38.648Z,103087.83
2019-05-14T07:56:04.160Z,103084.39
2019-05-14T07:58:34.299Z,103079.19
2019-05-14T08:01:04.444Z,103075.90
2019-05-14T08:03:34.571Z,103070.86
2019-05-14T08:06:04.761Z,103075.59
2019-05-14T08:08:34.895Z,103077.66
2019-05-14T08:11:05.332Z,103080.03
2019-05-14T08:13:35.522Z,103083.47
2019-05-14T08:16:05.660Z,103088.35
2019-05-14T08:18:35.777Z,103084.16
2019-05-14T08:21:08.286Z,103068.08
2019-05-14T08:23:39.176Z,103080.03
2019-05-14T08:26:09.751Z,103070.37
2019-05-14T08:28:40.953Z,103061.92
2019-05-14T08:31:11.098Z,103069.69
2019-05-14T08:33:41.241Z,103067.22
2019-05-14T08:36:11.369Z,103074.32
2019-05-14T08:38:45.393Z,103067.55
2019-05-14T08:41:13.324Z,103054.08
2019-05-14T08:43:43.444Z,103054.38
2019-05-14T08:46:13.581Z,103048.33
2019-05-14T08:48:43.705Z,103043.23
2019-05-14T08:51:13.838Z,103041.00
2019-05-14T08:53:43.977Z,103031.67
2019-05-14T08:56:14.217Z,103031.46
2019-05-14T08:58:44.339Z,103027.41
2019-05-14T09:01:14.484Z,103028.80
2019-05-14T09:03:44.591Z,103025.85
2019-05-14T09:06:14.788Z,103020.44
2019-05-14T09:08:44.917Z,103026.58
2019-05-14T09:11:15.096Z,103008.49
2019-05-14T09:13:45.301Z,103002.78
2019-05-14T09:16:15.434Z,103009.56
2019-05-14T09:18:45.565Z,102998.49
2019-05-14T09:21:15.709Z,103000.47
2019-05-14T09:23:48.068Z,103004.20
2019-05-14T09:26:18.240Z,103001.27
2019-05-14T09:28:48.548Z,102998.97
2019-05-14T09:31:19.903Z,102998.12
2019-05-14T09:33:50.268Z,102996.37
2019-05-14T09:36:24.033Z,102992.98
2019-05-14T09:38:52.244Z,102988.25
2019-05-14T09:41:22.371Z,102987.69
2019-05-14T09:43:52.560Z,102987.75
2019-05-14T09:46:22.692Z,102984.44
2019-05-14T09:48:52.820Z,102974.77
2019-05-14T09:51:23.023Z,102972.63
2019-05-14T09:53:53.145Z,102959.34
2019-05-14T09:56:23.561Z,102963.28
2019-05-14T09:58:53.740Z,102959.63
2019-05-14T10:01:23.878Z,102962.19
2019-05-14T10:03:54.008Z,102966.42
2019-05-14T10:06:24.182Z,102956.14
2019-05-14T10:08:54.303Z,102954.54
2019-05-14T10:11:24.449Z,102959.66
2019-05-14T10:13:54.572Z,102951.97
2019-05-14T10:16:24.729Z,102944.98
2019-05-14T10:18:54.845Z,102943.35
2019-05-14T10:21:26.068Z,102940.17
2019-05-14T10:23:58.448Z,102933.84
2019-05-14T10:26:28.846Z,102935.83
2019-05-14T10:28:59.215Z,102934.11
2019-05-14T10:31:29.369Z,102934.20
2019-05-14T10:33:59.553Z,102934.47
2019-05-14T10:36:30.175Z,102931.17
2019-05-14T10:39:00.408Z,102932.91
2019-05-14T10:41:30.621Z,102927.00
2019-05-14T10:44:00.740Z,102917.94
2019-05-14T10:46:30.878Z,102925.81
2019-05-14T10:49:16.327Z,102916.84
2019-05-14T10:51:32.844Z,102918.14
2019-05-14T10:54:18.858Z,102911.88
2019-05-14T10:56:34.828Z,102906.31
2019-05-14T10:59:05.126Z,102896.93
2019-05-14T11:01:35.259Z,102895.98
2019-05-14T11:04:05.425Z,102896.25
2019-05-14T11:06:35.603Z,102892.23
2019-05-14T11:09:09.119Z,102889.86
2019-05-14T11:11:39.384Z,102893.49
2019-05-14T11:14:09.597Z,102891.80
2019-05-14T11:16:41.883Z,102900.78
2019-05-14T11:19:11.601Z,102895.08
2019-05-14T11:21:41.735Z,102888.92
2019-05-14T11:24:11.873Z,102895.94
2019-05-14T11:26:42.046Z,102886.36
2019-05-14T11:29:12.159Z,102881.22
2019-05-14T11:31:43.405Z,102871.80
2019-05-14T11:34:13.552Z,102871.72
2019-05-14T11:36:44.756Z,102873.63
2019-05-14T11:39:14.885Z,102864.80
2019-05-14T11:41:45.024Z,102857.18
2019-05-14T11:44:15.148Z,102849.61
2019-05-14T11:46:52.400Z,102865.20
2019-05-14T11:49:19.384Z,102862.91
2019-05-14T11:52:06.136Z,102860.30
2019-05-14T11:54:22.999Z,102856.42
2019-05-14T11:56:52.637Z,102849.61
2019-05-14T11:59:22.763Z,102849.25
2019-05-14T12:01:54.972Z,102847.06
2019-05-14T12:04:24.742Z,102851.64
2019-05-14T12:06:54.941Z,102846.52
2019-05-14T12:09:25.085Z,102834.58
2019-05-14T12:11:55.216Z,102831.89
2019-05-14T12:14:25.333Z,102828.00
2019-05-14T12:16:55.632Z,102840.72
2019-05-14T12:19:28.177Z,102833.45
2019-05-14T12:22:06.738Z,102825.11
2019-05-14T12:24:29.473Z,102830.88
2019-05-14T12:26:59.627Z,102831.17
2019-05-14T12:29:29.755Z,102827.38
2019-05-14T12:31:59.883Z,102819.92
2019-05-14T12:34:30.053Z,102814.28
2019-05-14T12:37:00.206Z,102813.97
2019-05-14T12:39:30.348Z,102806.11
2019-05-14T12:42:00.512Z,102812.10
2019-05-14T12:44:30.641Z,102801.18
2019-05-14T12:47:00.755Z,102797.06
2019-05-14T12:49:30.872Z,102799.81
2019-05-14T12:52:17.874Z,102791.64
2019-05-14T12:54:32.817Z,102788.77
2019-05-14T12:57:03.031Z,102788.36
2019-05-14T12:59:33.213Z,102785.42
2019-05-14T13:02:03.545Z,102780.30
2019-05-14T13:04:33.685Z,102779.48
2019-05-14T13:07:03.902Z,102780.84
2019-05-14T13:09:34.012Z,102766.60
2019-05-14T13:12:04.341Z,102769.65
2019-05-14T13:14:34.469Z,102763.16
2019-05-14T13:17:04.635Z,102761.56
2019-05-14T13:19:34.777Z,102755.98
2019-05-14T13:22:13.012Z,102767.37
2019-05-14T13:24:39.416Z,102755.78
2019-05-14T13:27:09.478Z,102755.48
2019-05-14T13:29:39.788Z,102748.53
2019-05-14T13:32:12.458Z,102753.14
2019-05-14T13:34:41.761Z,102747.70
2019-05-14T13:37:11.945Z,102743.15
2019-05-14T13:39:42.069Z,102747.03
2019-05-14T13:42:12.219Z,102739.91
2019-05-14T13:44:42.533Z,102737.14
2019-05-14T13:47:12.647Z,102735.73
2019-05-14T13:49:43.672Z,102736.10
2019-05-14T13:52:13.796Z,102733.31
2019-05-14T13:54:43.918Z,102727.59
2019-05-14T13:57:14.099Z,102724.41
2019-05-14T13:59:44.882Z,102721.36
2019-05-14T14:02:14.966Z,102718.84
2019-05-14T14:04:45.380Z,102715.59
2019-05-14T14:07:15.534Z,102717.89
2019-05-14T14:09:45.712Z,102716.20
2019-05-14T14:12:17.814Z,102710.49
2019-05-14T14:14:49.381Z,102711.21
2019-05-14T14:17:19.818Z,102711.91
2019-05-14T14:19:49.932Z,102712.93
2019-05-14T14:22:20.103Z,102700.51
2019-05-14T14:24:50.353Z,102708.28
2019-05-14T14:27:20.483Z,102696.62
2019-05-14T14:29:50.616Z,102694.52
2019-05-14T14:32:20.853Z,102694.90
2019-05-14T14:34:51.126Z,102698.22
2019-05-14T14:37:21.271Z,102692.64
2019-05-14T14:39:51.411Z,102692.53
2019-05-14T14:42:21.600Z,102686.11
2019-05-14T14:44:51.717Z,102679.52
2019-05-14T14:47:21.927Z,102685.34
2019-05-14T14:49:52.233Z,102686.83
2019-05-14T14:52:22.376Z,102684.22
2019-05-14T14:54:53.278Z,102676.70
2019-05-14T14:57:23.408Z,102676.09
2019-05-14T14:59:56.215Z,102670.59
2019-05-14T15:02:25.417Z,102666.51
2019-05-14T15:04:55.556Z,102671.38
2019-05-14T15:07:29.650Z,102664.94
2019-05-14T15:09:59.654Z,102666.81
2019-05-14T15:12:29.883Z,102665.59
2019-05-14T15:15:00.082Z,102664.98
2019-05-14T15:17:30.321Z,102663.41
2019-05-14T15:20:00.463Z,102659.86
2019-05-14T15:22:31.214Z,102658.66
2019-05-14T15:25:01.491Z,102661.75
2019-05-14T15:27:31.667Z,102665.11
2019-05-14T15:30:01.802Z,102660.30
2019-05-14T15:32:32.136Z,102659.94
2019-05-14T15:35:02.590Z,102660.13
2019-05-14T15:37:32.922Z,102656.45
2019-05-14T15:40:04.153Z,102661.36
2019-05-14T15:42:34.561Z,102652.83
2019-05-14T15:45:05.400Z,102656.84
2019-05-14T15:47:35.547Z,102654.02
2019-05-14T15:50:08.915Z,102652.63
2019-05-14T15:52:39.922Z,102643.03
2019-05-14T15:55:10.757Z,102652.30
2019-05-14T15:57:41.051Z,102653.19
2019-05-14T16:00:11.543Z,102651.66
2019-05-14T16:02:42.964Z,102649.47
2019-05-14T16:05:13.093Z,102649.72
2019-05-14T16:07:44.187Z,102650.16
2019-05-14T16:10:16.339Z,102648.55
2019-05-14T16:12:49.379Z,102635.27
2019-05-14T16:15:18.883Z,102641.88
2019-05-14T16:18:04.362Z,102648.00
2019-05-14T16:20:20.955Z,102646.50
2019-05-14T16:22:51.168Z,102648.66
2019-05-14T16:25:21.497Z,102651.51
2019-05-14T16:27:51.644Z,102639.64
2019-05-14T16:30:21.771Z,102643.45
2019-05-14T16:32:51.910Z,102646.30
2019-05-14T16:35:22.056Z,102654.41
2019-05-14T16:37:52.387Z,102646.87
2019-05-14T16:40:22.589Z,102646.86
2019-05-14T16:42:52.721Z,102648.13
2019-05-14T16:45:23.793Z,102646.53
2019-05-14T16:47:54.357Z,102643.48
2019-05-14T16:50:24.574Z,102642.28
2019-05-14T16:52:54.749Z,102633.91
2019-05-14T16:55:27.818Z,102640.69
2019-05-14T16:57:58.230Z,102640.14
2019-05-14T17:00:29.437Z,102641.53
2019-05-14T17:02:59.798Z,102648.78
2019-05-14T17:05:30.329Z,102644.09
2019-05-14T17:08:00.593Z,102644.41
2019-05-14T17:10:30.752Z,102644.50
2019-05-14T17:13:01.888Z,102637.59
2019-05-14T17:15:32.184Z,102644.24
2019-05-14T17:18:02.343Z,102639.48
2019-05-14T17:20:32.485Z,102644.34
2019-05-14T17:23:02.725Z,102642.19
2019-05-14T17:25:32.831Z,102640.84
2019-05-14T17:28:03.017Z,102640.36
2019-05-14T17:30:33.155Z,102631.31
2019-05-14T17:33:03.283Z,102633.39
2019-05-14T17:35:33.409Z,102634.58
2019-05-14T17:38:04.314Z,102637.19
2019-05-14T17:40:34.425Z,102634.80
2019-05-14T17:43:04.571Z,102632.73
2019-05-14T17:45:34.738Z,102638.35
2019-05-14T17:48:04.963Z,102638.28
2019-05-14T17:50:39.311Z,102637.94
2019-05-14T17:53:11.068Z,102634.74
2019-05-14T17:55:47.150Z,102640.39
2019-05-14T17:58:13.411Z,102638.79
2019-05-14T18:00:43.519Z,102639.89
2019-05-14T18:03:13.868Z,102637.63
2019-05-14T18:05:44.031Z,102635.37
2019-05-14T18:08:15.176Z,102639.11
2019-05-14T18:10:45.322Z,102642.76
2019-05-14T18:13:18.032Z,102642.33
2019-05-14T18:15:48.830Z,102648.02
2019-05-14T18:18:21.103Z,102641.43
2019-05-14T18:20:51.234Z,102646.49
2019-05-14T18:23:21.386Z,102648.39
2019-05-14T18:26:03.366Z,102648.97
2019-05-14T18:28:23.680Z,102651.04
2019-05-14T18:30:53.843Z,102652.66
2019-05-14T18:33:24.084Z,102648.27
2019-05-14T18:35:54.288Z,102652.47
2019-05-14T18:38:24.466Z,102654.23
2019-05-14T18:40:54.583Z,102652.88
2019-05-14T18:43:24.738Z,102654.36
2019-05-14T18:45:54.911Z,102655.91
2019-05-14T18:48:25.058Z,102654.56
2019-05-14T18:50:59.039Z,102658.39
2019-05-14T18:53:28.591Z,102655.50
2019-05-14T18:55:59.731Z,102663.31
2019-05-14T18:58:30.452Z,102658.73
2019-05-14T19:01:00.798Z,102661.70
2019-05-14T19:03:31.062Z,102661.36
2019-05-14T19:06:01.215Z,102659.47
2019-05-14T19:08:32.820Z,102658.20
2019-05-14T19:11:03.040Z,102665.73
2019-05-14T19:13:33.393Z,102663.38
2019-05-14T19:16:03.722Z,102665.46
2019-05-14T19:18:34.039Z,102669.91
2019-05-14T19:21:04.241Z,102662.91
2019-05-14T19:23:34.412Z,102667.63
2019-05-14T19:26:04.609Z,102667.48
2019-05-14T19:28:34.833Z,102632.48
2019-05-14T19:31:06.326Z,102674.52
2019-05-14T19:33:38.021Z,102677.47
2019-05-14T19:36:08.990Z,102672.52
2019-05-14T19:38:39.397Z,102672.12
2019-05-14T19:41:09.629Z,102674.86
2019-05-14T19:43:41.105Z,102678.73
2019-05-14T19:46:11.274Z,102679.48
2019-05-14T19:48:41.610Z,102680.33
2019-05-14T19:51:11.909Z,102682.10
2019-05-14T19:53:42.169Z,102685.13
2019-05-14T19:56:12.423Z,102682.33
2019-05-14T19:58:42.669Z,102683.50
2019-05-14T20:01:13.006Z,102682.69
2019-05-14T20:03:43.302Z,102684.76
2019-05-14T20:06:13.604Z,102687.09
2019-05-14T20:08:43.878Z,102687.20
2019-05-14T20:11:14.207Z,102685.68
2019-05-14T20:13:48.463Z,102689.53
2019-05-14T20:16:18.541Z,102686.69
2019-05-14T20:18:48.934Z,102685.68
2019-05-14T20:21:19.182Z,102685.38
2019-05-14T20:23:49.343Z,102692.44
2019-05-14T20:26:19.569Z,102692.16
2019-05-14T20:28:49.775Z,102695.77
2019-05-14T20:31:19.926Z,102690.41
2019-05-14T20:33:50.068Z,102694.37
2019-05-14T20:36:20.206Z,102685.98
2019-05-14T20:38:50.325Z,102686.81
2019-05-14T20:41:20.447Z,102687.33
2019-05-14T20:43:50.618Z,102689.08
2019-05-14T20:46:20.734Z,102684.39
2019-05-14T20:48:50.877Z,102684.67
2019-05-14T20:51:20.978Z,102683.54
2019-05-14T20:53:51.096Z,102681.58
2019-05-14T20:56:21.226Z,102685.13
2019-05-14T20:58:51.450Z,102685.75
2019-05-14T21:01:21.580Z,102688.16
2019-05-14T21:03:51.726Z,102689.66
2019-05-14T21:06:21.902Z,102684.59
2019-05-14T21:08:52.073Z,102689.31
2019-05-14T21:11:22.195Z,102690.84
2019-05-14T21:13:52.320Z,102694.19
2019-05-14T21:16:22.461Z,102693.45
2019-05-14T21:18:52.615Z,102692.66
2019-05-14T21:21:22.743Z,102691.55
2019-05-14T21:23:52.875Z,102688.68
2019-05-14T21:26:23.001Z,102692.84
2019-05-14T21:28:53.130Z,102692.05
2019-05-14T21:31:23.242Z,102683.31
2019-05-14T21:33:53.464Z,102685.75
2019-05-14T21:36:23.579Z,102687.69
2019-05-14T21:38:53.700Z,102683.81
2019-05-14T21:41:23.816Z,102682.19
2019-05-14T21:43:53.980Z,102684.07
2019-05-14T21:46:24.094Z,102683.06
2019-05-14T21:48:54.218Z,102680.69
2019-05-14T21:51:24.338Z,102684.28
2019-05-14T21:53:54.452Z,102680.13
2019-05-14T21:56:24.578Z,102681.13
2019-05-14T21:58:54.809Z,102675.09
2019-05-14T22:01:24.924Z,102682.12
2019-05-14T22:03:55.140Z,102686.25
2019-05-14T22:06:25.238Z,102683.13
2019-05-14T22:08:55.454Z,102684.08
2019-05-14T22:11:25.668Z,102689.92
2019-05-14T22:13:58.159Z,102687.81
2019-05-14T22:16:28.231Z,102687.02
2019-05-14T22:18:59.309Z,102680.44
2019-05-14T22:21:29.652Z,102680.13
2019-05-14T22:23:59.762Z,102678.87
2019-05-14T22:26:29.898Z,102686.05
2019-05-14T22:29:00.060Z,102678.73
2019-05-14T22:31:30.199Z,102681.55
2019-05-14T22:34:00.456Z,102684.39
2019-05-14T22:36:30.579Z,102685.08
2019-05-14T22:39:00.694Z,102686.09
2019-05-14T22:41:32.457Z,102686.22
2019-05-14T22:44:02.605Z,102690.78
2019-05-14T22:46:32.738Z,102693.02
2019-05-14T22:49:02.878Z,102701.95
2019-05-14T22:51:33.301Z,102694.98
2019-05-14T22:54:03.516Z,102697.70
2019-05-14T22:56:33.674Z,102700.44
2019-05-14T22:59:03.791Z,102698.77
2019-05-14T23:01:34.072Z,102696.16
2019-05-14T23:04:04.195Z,102693.09
2019-05-14T23:06:34.320Z,102691.42
2019-05-14T23:09:05.617Z,102695.95
2019-05-14T23:11:35.760Z,102690.67
2019-05-14T23:14:07.592Z,102684.52
2019-05-14T23:16:41.640Z,102695.70
2019-05-14T23:19:09.674Z,102690.89
2019-05-14T23:21:39.794Z,102688.34
2019-05-14T23:24:10.022Z,102685.28
2019-05-14T23:26:40.134Z,102683.58
2019-05-14T23:29:10.284Z,102681.42
2019-05-14T23:31:40.402Z,102674.35
2019-05-14T23:34:10.557Z,102671.28
2019-05-14T23:36:40.780Z,102676.24
2019-05-14T23:39:10.930Z,102669.72
2019-05-14T23:41:41.058Z,102677.34
2019-05-14T23:44:11.203Z,102669.42
2019-05-14T23:46:41.321Z,102667.69
2019-05-14T23:49:11.464Z,102666.41
2019-05-14T23:51:41.566Z,102666.94
2019-05-14T23:54:11.682Z,102665.22
2019-05-14T23:56:41.801Z,102666.23
2019-05-14T23:59:11.922Z,102666.23
